Minsk, Belarus
Current Conditions -  °F | °C
As of 2:00 PM on Friday 28 Nov 2014 (Local Time) from UMMM Reporting Station
Clear Clear  
Wind Chill: 13°   Ceiling: Unl
Heat Index: 19°   Visibility: 6mi
Dew Point: 18°   Wind: 4mph
Humidity: 93%   Direction: 60°ENE
Pressure: 30.42"   Gusts: NA
Location:  53.91°N, 27.55°E
Report Text: UMMM 281200Z 06002MPS CAVOK M07/M08 Q1030 R12/920140 NOSIG RMKQFE752
Loading
Personal Weather Stations






























Interactive Weather Map New forecast layout! Learn more

10-Day Weather Forecast

Advertisements
Track Severe Weather on mobile